Terminal Aerodrome Forecast
Issued by NWS Charleston, WV

Current Version | Previous Version | Text Only | Print | Product List | Glossary Off
Versions: 1 2 3 4 5 6 7 8 9 10 11 12 13 14 15 16 17 18 19 20 21 22 23 24

000
FTUS41 KRLX 292056 AAC
TAFPKB
TAF AMD
KPKB 292056Z 2921/3018 20007KT P6SM VCTS BKN040CB
     FM300100 VRB03KT P6SM SCT040 BKN080
     FM300700 17004KT 6SM BR BKN050=

USA.gov is the U.S. government's official web portal to all federal, state and local government web resources and services.